sensor_id;sensor_type;location;lat;lon;timestamp;pressure;altitude;pressure_sealevel;temperature;humidity
54146;BME280;40052;49.422;7.738;2022-10-17T00:00:02;74557.31;;;-145.25;88.21
54146;BME280;40052;49.422;7.738;2022-10-17T00:02:28;74507.22;;;-145.25;86.56
54146;BME280;40052;49.422;7.738;2022-10-17T00:04:53;74497.19;;;-145.25;84.96
54146;BME280;40052;49.422;7.738;2022-10-17T00:07:19;74477.16;;;-145.25;83.70
54146;BME280;40052;49.422;7.738;2022-10-17T00:09:47;74465.13;;;-145.25;83.42
54146;BME280;40052;49.422;7.738;2022-10-17T00:12:14;74425.06;;;-145.25;81.33
54146;BME280;40052;49.422;7.738;2022-10-17T00:14:43;74413.03;;;-145.25;80.48
54146;BME280;40052;49.422;7.738;2022-10-17T00:17:08;74389.00;;;-145.25;79.83
54146;BME280;40052;49.422;7.738;2022-10-17T00:19:36;74372.97;;;-145.25;78.71
54146;BME280;40052;49.422;7.738;2022-10-17T00:22:01;74362.94;;;-145.25;78.02
54146;BME280;40052;49.422;7.738;2022-10-17T00:24:29;74344.91;;;-145.25;77.19
54146;BME280;40052;49.422;7.738;2022-10-17T00:26:55;74320.88;;;-145.25;75.98
54146;BME280;40052;49.422;7.738;2022-10-17T00:29:20;74298.81;;;-145.25;74.91
54146;BME280;40052;49.422;7.738;2022-10-17T00:31:45;74304.84;;;-145.25;75.22
54146;BME280;40052;49.422;7.738;2022-10-17T00:34:11;74274.78;;;-145.25;73.97
54146;BME280;40052;49.422;7.738;2022-10-17T00:36:38;74260.75;;;-145.25;72.81
54146;BME280;40052;49.422;7.738;2022-10-17T00:39:04;74264.75;;;-145.25;72.63
54146;BME280;40052;49.422;7.738;2022-10-17T00:41:32;74242.72;;;-145.25;72.02
54146;BME280;40052;49.422;7.738;2022-10-17T00:44:03;74256.75;;;-145.25;72.36
54146;BME280;40052;49.422;7.738;2022-10-17T00:46:36;74248.72;;;-145.25;71.94
54146;BME280;40052;49.422;7.738;2022-10-17T00:49:10;74220.69;;;-145.25;70.95
54146;BME280;40052;49.422;7.738;2022-10-17T00:51:44;74226.69;;;-145.25;70.68
54146;BME280;40052;49.422;7.738;2022-10-17T00:54:12;74214.66;;;-145.25;69.90
54146;BME280;40052;49.422;7.738;2022-10-17T00:56:41;74232.69;;;-145.25;70.96
54146;BME280;40052;49.422;7.738;2022-10-17T00:59:11;74216.66;;;-145.25;70.19
54146;BME280;40052;49.422;7.738;2022-10-17T01:01:42;74194.63;;;-145.25;69.36
54146;BME280;40052;49.422;7.738;2022-10-17T01:04:12;74176.59;;;-145.25;68.51
54146;BME280;40052;49.422;7.738;2022-10-17T01:06:39;74184.63;;;-145.25;68.69
54146;BME280;40052;49.422;7.738;2022-10-17T01:09:04;74192.63;;;-145.25;69.18
54146;BME280;40052;49.422;7.738;2022-10-17T01:11:48;74186.63;;;-145.25;69.01
54146;BME280;40052;49.422;7.738;2022-10-17T01:17:22;74210.66;;;-145.25;69.34
54146;BME280;40052;49.422;7.738;2022-10-17T01:23:17;74208.66;;;-145.25;69.46
54146;BME280;40052;49.422;7.738;2022-10-17T01:26:16;74224.69;;;-145.25;69.81
54146;BME280;40052;49.422;7.738;2022-10-17T01:31:29;74224.69;;;-145.25;69.89
54146;BME280;40052;49.422;7.738;2022-10-17T01:34:04;74228.69;;;-145.25;69.62
54146;BME280;40052;49.422;7.738;2022-10-17T01:39:14;74248.72;;;-145.25;70.24
54146;BME280;40052;49.422;7.738;2022-10-17T01:41:47;74250.72;;;-145.25;70.72
54146;BME280;40052;49.422;7.738;2022-10-17T01:44:18;74260.75;;;-145.25;71.10
54146;BME280;40052;49.422;7.738;2022-10-17T01:46:56;74264.75;;;-145.25;71.11
54146;BME280;40052;49.422;7.738;2022-10-17T01:49:26;74244.72;;;-145.25;70.36
54146;BME280;40052;49.422;7.738;2022-10-17T01:51:59;74244.72;;;-145.25;70.54
54146;BME280;40052;49.422;7.738;2022-10-17T01:54:41;74212.66;;;-145.25;69.34
54146;BME280;40052;49.422;7.738;2022-10-17T01:57:18;74220.69;;;-145.25;69.74
54146;BME280;40052;49.422;7.738;2022-10-17T01:59:46;74218.69;;;-145.25;69.66
54146;BME280;40052;49.422;7.738;2022-10-17T02:02:14;74228.69;;;-145.25;70.20
54146;BME280;40052;49.422;7.738;2022-10-17T02:04:41;74244.72;;;-145.25;70.59
54146;BME280;40052;49.422;7.738;2022-10-17T02:07:09;74232.69;;;-145.25;70.70
54146;BME280;40052;49.422;7.738;2022-10-17T02:09:34;74246.72;;;-145.25;71.28
54146;BME280;40052;49.422;7.738;2022-10-17T02:20:42;74246.72;;;-145.25;70.88
54146;BME280;40052;49.422;7.738;2022-10-17T02:26:35;74264.75;;;-145.25;71.27
54146;BME280;40052;49.422;7.738;2022-10-17T02:29:15;74264.75;;;-145.25;71.43
54146;BME280;40052;49.422;7.738;2022-10-17T02:31:48;74268.78;;;-145.25;71.27
54146;BME280;40052;49.422;7.738;2022-10-17T02:34:23;74268.78;;;-145.25;71.41
54146;BME280;40052;49.422;7.738;2022-10-17T02:36:58;74260.75;;;-145.25;71.20
54146;BME280;40052;49.422;7.738;2022-10-17T02:39:26;74266.75;;;-145.25;71.03
54146;BME280;40052;49.422;7.738;2022-10-17T02:41:56;74248.72;;;-145.25;70.29
54146;BME280;40052;49.422;7.738;2022-10-17T02:44:24;74272.78;;;-145.25;71.19
54146;BME280;40052;49.422;7.738;2022-10-17T02:47:02;74268.78;;;-145.25;71.16
54146;BME280;40052;49.422;7.738;2022-10-17T02:49:35;74262.75;;;-145.25;71.17
54146;BME280;40052;49.422;7.738;2022-10-17T02:52:13;74256.75;;;-145.25;71.02
54146;BME280;40052;49.422;7.738;2022-10-17T02:57:17;74252.75;;;-145.25;70.82
54146;BME280;40052;49.422;7.738;2022-10-17T02:59:46;74262.75;;;-145.25;71.17
54146;BME280;40052;49.422;7.738;2022-10-17T03:02:12;74264.75;;;-145.25;71.20
54146;BME280;40052;49.422;7.738;2022-10-17T03:04:41;74268.78;;;-145.25;70.99
54146;BME280;40052;49.422;7.738;2022-10-17T03:07:09;74268.78;;;-145.25;71.32
54146;BME280;40052;49.422;7.738;2022-10-17T03:09:35;74268.78;;;-145.25;71.41
54146;BME280;40052;49.422;7.738;2022-10-17T03:12:03;74278.78;;;-145.25;71.75
54146;BME280;40052;49.422;7.738;2022-10-17T03:14:28;74284.78;;;-145.25;72.10
54146;BME280;40052;49.422;7.738;2022-10-17T03:16:56;74282.78;;;-145.25;71.97
54146;BME280;40052;49.422;7.738;2022-10-17T03:19:21;74288.81;;;-145.25;71.86
54146;BME280;40052;49.422;7.738;2022-10-17T03:21:47;74296.81;;;-145.25;72.36
54146;BME280;40052;49.422;7.738;2022-10-17T03:24:12;74292.81;;;-145.25;72.03
54146;BME280;40052;49.422;7.738;2022-10-17T03:26:37;74296.81;;;-145.25;72.30
54146;BME280;40052;49.422;7.738;2022-10-17T03:29:03;74298.81;;;-145.25;72.04
54146;BME280;40052;49.422;7.738;2022-10-17T03:31:33;74294.81;;;-145.25;71.81
54146;BME280;40052;49.422;7.738;2022-10-17T03:34:01;74282.78;;;-145.25;71.32
54146;BME280;40052;49.422;7.738;2022-10-17T03:36:29;74290.81;;;-145.25;71.58
54146;BME280;40052;49.422;7.738;2022-10-17T03:38:54;74302.84;;;-145.25;72.35
54146;BME280;40052;49.422;7.738;2022-10-17T03:41:20;74308.84;;;-145.25;72.41
54146;BME280;40052;49.422;7.738;2022-10-17T03:43:46;74316.84;;;-145.25;72.55
54146;BME280;40052;49.422;7.738;2022-10-17T03:46:11;74318.88;;;-145.25;72.47
54146;BME280;40052;49.422;7.738;2022-10-17T03:48:39;74318.88;;;-145.25;72.42
54146;BME280;40052;49.422;7.738;2022-10-17T03:51:08;74318.88;;;-145.25;72.72
54146;BME280;40052;49.422;7.738;2022-10-17T03:53:34;74328.88;;;-145.25;72.41
54146;BME280;40052;49.422;7.738;2022-10-17T03:56:11;74348.91;;;-145.25;73.67
54146;BME280;40052;49.422;7.738;2022-10-17T03:58:36;74364.94;;;-145.25;74.35
54146;BME280;40052;49.422;7.738;2022-10-17T04:01:05;74374.97;;;-145.25;74.59
54146;BME280;40052;49.422;7.738;2022-10-17T04:03:31;74395.00;;;-145.25;75.09
54146;BME280;40052;49.422;7.738;2022-10-17T04:05:58;74403.03;;;-145.25;76.57
54146;BME280;40052;49.422;7.738;2022-10-17T04:08:26;74439.09;;;-145.25;78.59
54146;BME280;40052;49.422;7.738;2022-10-17T04:10:51;74461.13;;;-145.25;79.66
54146;BME280;40052;49.422;7.738;2022-10-17T04:13:17;74489.19;;;-145.25;80.33
54146;BME280;40052;49.422;7.738;2022-10-17T04:15:55;74525.25;;;-145.25;80.99
54146;BME280;40052;49.422;7.738;2022-10-17T04:18:21;74545.28;;;-145.25;81.29
54146;BME280;40052;49.422;7.738;2022-10-17T04:20:47;74557.31;;;-145.25;82.07
54146;BME280;40052;49.422;7.738;2022-10-17T04:23:17;74571.34;;;-145.25;82.97
54146;BME280;40052;49.422;7.738;2022-10-17T04:25:42;74575.34;;;-145.25;82.94
54146;BME280;40052;49.422;7.738;2022-10-17T04:28:10;74609.41;;;-145.25;83.45
54146;BME280;40052;49.422;7.738;2022-10-17T04:30:38;74603.41;;;-145.25;84.39
54146;BME280;40052;49.422;7.738;2022-10-17T04:33:04;74605.41;;;-145.25;84.33
54146;BME280;40052;49.422;7.738;2022-10-17T04:35:29;74609.41;;;-145.25;84.58
54146;BME280;40052;49.422;7.738;2022-10-17T04:37:57;74625.44;;;-145.25;85.00
54146;BME280;40052;49.422;7.738;2022-10-17T04:40:25;74621.44;;;-145.25;85.61
54146;BME280;40052;49.422;7.738;2022-10-17T04:42:52;74633.47;;;-145.25;85.28
54146;BME280;40052;49.422;7.738;2022-10-17T04:45:18;74637.47;;;-145.25;86.07
54146;BME280;40052;49.422;7.738;2022-10-17T04:47:43;74627.47;;;-145.25;86.44
54146;BME280;40052;49.422;7.738;2022-10-17T04:50:13;74623.44;;;-145.25;86.68
54146;BME280;40052;49.422;7.738;2022-10-17T04:52:38;74633.47;;;-145.25;86.79
54146;BME280;40052;49.422;7.738;2022-10-17T04:55:06;74623.44;;;-145.25;87.05
54146;BME280;40052;49.422;7.738;2022-10-17T04:57:35;74615.44;;;-145.25;86.47
54146;BME280;40052;49.422;7.738;2022-10-17T05:00:03;74601.41;;;-145.25;84.68
54146;BME280;40052;49.422;7.738;2022-10-17T05:02:29;74555.31;;;-145.25;81.43
54146;BME280;40052;49.422;7.738;2022-10-17T05:04:54;74537.28;;;-145.25;79.55
54146;BME280;40052;49.422;7.738;2022-10-17T05:07:19;74531.28;;;-145.25;79.25
54146;BME280;40052;49.422;7.738;2022-10-17T05:09:45;74529.25;;;-145.25;79.54
54146;BME280;40052;49.422;7.738;2022-10-17T05:12:10;74553.31;;;-145.25;80.57
54146;BME280;40052;49.422;7.738;2022-10-17T05:14:35;74535.28;;;-145.25;79.21
54146;BME280;40052;49.422;7.738;2022-10-17T05:17:03;74511.22;;;-145.25;77.66
54146;BME280;40052;49.422;7.738;2022-10-17T05:19:28;74481.19;;;-145.25;76.29
54146;BME280;40052;49.422;7.738;2022-10-17T05:21:54;74449.13;;;-145.25;74.87
54146;BME280;40052;49.422;7.738;2022-10-17T05:24:19;74421.06;;;-145.25;73.83
54146;BME280;40052;49.422;7.738;2022-10-17T05:26:44;74427.06;;;-145.25;73.94
54146;BME280;40052;49.422;7.738;2022-10-17T05:29:10;74435.09;;;-145.25;73.71
54146;BME280;40052;49.422;7.738;2022-10-17T05:31:40;74417.06;;;-145.25;73.41
54146;BME280;40052;49.422;7.738;2022-10-17T05:34:08;74423.06;;;-145.25;73.53
54146;BME280;40052;49.422;7.738;2022-10-17T05:36:38;74391.00;;;-145.25;72.12
54146;BME280;40052;49.422;7.738;2022-10-17T05:39:06;74397.00;;;-145.25;71.64
54146;BME280;40052;49.422;7.738;2022-10-17T05:41:34;74380.97;;;-145.25;71.35
54146;BME280;40052;49.422;7.738;2022-10-17T05:44:00;74380.97;;;-145.25;71.10
54146;BME280;40052;49.422;7.738;2022-10-17T05:46:25;74376.97;;;-145.25;70.99
54146;BME280;40052;49.422;7.738;2022-10-17T05:48:54;74370.97;;;-145.25;70.14
54146;BME280;40052;49.422;7.738;2022-10-17T05:51:22;74336.91;;;-145.25;68.60
54146;BME280;40052;49.422;7.738;2022-10-17T05:53:50;74338.91;;;-145.25;68.90
54146;BME280;40052;49.422;7.738;2022-10-17T05:56:20;74378.97;;;-145.25;70.68
54146;BME280;40052;49.422;7.738;2022-10-17T05:58:47;74399.00;;;-145.25;71.33
54146;BME280;40052;49.422;7.738;2022-10-17T06:01:13;74399.00;;;-145.25;71.34
54146;BME280;40052;49.422;7.738;2022-10-17T06:03:38;74382.97;;;-145.25;70.66
54146;BME280;40052;49.422;7.738;2022-10-17T06:06:08;74368.97;;;-145.25;70.23
54146;BME280;40052;49.422;7.738;2022-10-17T06:08:34;74348.91;;;-145.25;69.19
54146;BME280;40052;49.422;7.738;2022-10-17T06:11:03;74338.91;;;-145.25;68.81
54146;BME280;40052;49.422;7.738;2022-10-17T06:13:29;74344.91;;;-145.25;68.66
54146;BME280;40052;49.422;7.738;2022-10-17T06:15:54;74334.91;;;-145.25;68.56
54146;BME280;40052;49.422;7.738;2022-10-17T06:18:20;74322.88;;;-145.25;68.02
54146;BME280;40052;49.422;7.738;2022-10-17T06:20:45;74334.91;;;-145.25;68.61
54146;BME280;40052;49.422;7.738;2022-10-17T06:23:15;74336.91;;;-145.25;68.81
54146;BME280;40052;49.422;7.738;2022-10-17T06:25:40;74344.91;;;-145.25;68.27
54146;BME280;40052;49.422;7.738;2022-10-17T06:28:08;74342.91;;;-145.25;68.72
54146;BME280;40052;49.422;7.738;2022-10-17T06:30:37;74350.94;;;-145.25;68.63
54146;BME280;40052;49.422;7.738;2022-10-17T06:33:05;74362.94;;;-145.25;69.49
54146;BME280;40052;49.422;7.738;2022-10-17T06:35:31;74356.94;;;-145.25;69.78
54146;BME280;40052;49.422;7.738;2022-10-17T06:37:56;74370.97;;;-145.25;69.65
54146;BME280;40052;49.422;7.738;2022-10-17T06:40:21;74342.91;;;-145.25;68.24
54146;BME280;40052;49.422;7.738;2022-10-17T06:42:47;74370.97;;;-145.25;69.75
54146;BME280;40052;49.422;7.738;2022-10-17T06:45:12;74389.00;;;-145.25;70.93
54146;BME280;40052;49.422;7.738;2022-10-17T06:47:38;74397.00;;;-145.25;70.94
54146;BME280;40052;49.422;7.738;2022-10-17T06:50:04;74423.06;;;-145.25;71.85
54146;BME280;40052;49.422;7.738;2022-10-17T06:52:31;74487.19;;;-145.25;73.40
54146;BME280;40052;49.422;7.738;2022-10-17T06:54:59;74489.19;;;-145.25;74.54
54146;BME280;40052;49.422;7.738;2022-10-17T06:57:25;74495.19;;;-145.25;74.30
54146;BME280;40052;49.422;7.738;2022-10-17T06:59:51;74497.19;;;-145.25;75.01
54146;BME280;40052;49.422;7.738;2022-10-17T07:02:17;74495.19;;;-145.25;75.74
54146;BME280;40052;49.422;7.738;2022-10-17T07:04:45;74481.19;;;-145.25;75.51
54146;BME280;40052;49.422;7.738;2022-10-17T07:07:11;74481.19;;;-145.25;75.96
54146;BME280;40052;49.422;7.738;2022-10-17T07:09:36;74471.16;;;-145.25;75.75
54146;BME280;40052;49.422;7.738;2022-10-17T07:12:02;74429.06;;;-145.25;72.38
54146;BME280;40052;49.422;7.738;2022-10-17T07:14:27;74413.03;;;-145.25;70.96
54146;BME280;40052;49.422;7.738;2022-10-17T07:16:59;74382.97;;;-145.25;69.80
54146;BME280;40052;49.422;7.738;2022-10-17T07:19:25;74346.91;;;-145.25;68.02
54146;BME280;40052;49.422;7.738;2022-10-17T07:21:51;74338.91;;;-145.25;66.68
54146;BME280;40052;49.422;7.738;2022-10-17T07:24:17;74308.84;;;-145.25;65.47
54146;BME280;40052;49.422;7.738;2022-10-17T07:26:42;74300.84;;;-145.25;65.08
54146;BME280;40052;49.422;7.738;2022-10-17T07:29:08;74282.78;;;-145.25;63.56
54146;BME280;40052;49.422;7.738;2022-10-17T07:31:38;74276.78;;;-145.25;63.63
54146;BME280;40052;49.422;7.738;2022-10-17T07:34:04;74270.78;;;-145.25;63.87
54146;BME280;40052;49.422;7.738;2022-10-17T07:36:32;74270.78;;;-145.25;63.74
54146;BME280;40052;49.422;7.738;2022-10-17T07:38:59;74272.78;;;-145.25;64.55
54146;BME280;40052;49.422;7.738;2022-10-17T07:41:25;74264.75;;;-145.25;63.71
54146;BME280;40052;49.422;7.738;2022-10-17T07:43:52;74244.72;;;-145.25;62.94
54146;BME280;40052;49.422;7.738;2022-10-17T07:46:18;74244.72;;;-145.25;62.71
54146;BME280;40052;49.422;7.738;2022-10-17T07:48:43;74224.69;;;-145.25;62.33
54146;BME280;40052;49.422;7.738;2022-10-17T07:51:09;74226.69;;;-145.25;62.78
54146;BME280;40052;49.422;7.738;2022-10-17T07:53:36;74218.69;;;-145.25;61.72
54146;BME280;40052;49.422;7.738;2022-10-17T07:56:08;74208.66;;;-145.25;61.36
54146;BME280;40052;49.422;7.738;2022-10-17T07:58:34;74214.66;;;-145.25;62.03
54146;BME280;40052;49.422;7.738;2022-10-17T08:01:01;74204.66;;;-145.25;62.02
54146;BME280;40052;49.422;7.738;2022-10-17T08:03:29;74214.66;;;-145.25;61.08
54146;BME280;40052;49.422;7.738;2022-10-17T08:05:58;74188.63;;;-145.25;61.78
54146;BME280;40052;49.422;7.738;2022-10-17T08:08:24;74186.63;;;-145.25;62.43
54146;BME280;40052;49.422;7.738;2022-10-17T08:10:49;74198.63;;;-145.25;61.85
54146;BME280;40052;49.422;7.738;2022-10-17T08:13:15;74210.66;;;-145.25;63.15
54146;BME280;40052;49.422;7.738;2022-10-17T08:15:42;74220.69;;;-145.25;63.28
54146;BME280;40052;49.422;7.738;2022-10-17T08:18:08;74212.66;;;-145.25;63.48
54146;BME280;40052;49.422;7.738;2022-10-17T08:20:34;74200.63;;;-145.25;63.76
54146;BME280;40052;49.422;7.738;2022-10-17T08:22:59;74196.63;;;-145.25;62.47
54146;BME280;40052;49.422;7.738;2022-10-17T08:25:24;74186.63;;;-145.25;62.17
54146;BME280;40052;49.422;7.738;2022-10-17T08:27:50;74180.59;;;-145.25;61.70
54146;BME280;40052;49.422;7.738;2022-10-17T08:30:16;74164.56;;;-145.25;61.05
54146;BME280;40052;49.422;7.738;2022-10-17T08:32:41;74156.56;;;-145.25;61.19
54146;BME280;40052;49.422;7.738;2022-10-17T08:35:07;74152.56;;;-145.25;60.19
54146;BME280;40052;49.422;7.738;2022-10-17T08:37:35;74136.53;;;-145.25;59.60
54146;BME280;40052;49.422;7.738;2022-10-17T08:40:05;74138.53;;;-145.25;60.11
54146;BME280;40052;49.422;7.738;2022-10-17T08:45:48;74140.53;;;-145.25;60.54
54146;BME280;40052;49.422;7.738;2022-10-17T08:48:18;74118.50;;;-145.25;60.19
54146;BME280;40052;49.422;7.738;2022-10-17T08:50:58;74102.47;;;-145.25;59.50
54146;BME280;40052;49.422;7.738;2022-10-17T08:55:56;74104.47;;;-145.25;58.63
54146;BME280;40052;49.422;7.738;2022-10-17T08:58:29;74100.47;;;-145.25;58.53
54146;BME280;40052;49.422;7.738;2022-10-17T09:04:20;74056.38;;;-145.25;57.76
54146;BME280;40052;49.422;7.738;2022-10-17T09:07:01;74024.31;;;-145.25;58.29
54146;BME280;40052;49.422;7.738;2022-10-17T09:13:18;73990.25;;;-145.25;57.68
54146;BME280;40052;49.422;7.738;2022-10-17T09:15:48;73986.25;;;-145.25;56.79
54146;BME280;40052;49.422;7.738;2022-10-17T09:18:29;73984.25;;;-145.25;57.58
54146;BME280;40052;49.422;7.738;2022-10-17T09:23:50;73996.25;;;-145.25;57.21
54146;BME280;40052;49.422;7.738;2022-10-17T09:26:19;73988.25;;;-145.25;56.56
54146;BME280;40052;49.422;7.738;2022-10-17T09:28:53;73980.25;;;-145.25;56.14
54146;BME280;40052;49.422;7.738;2022-10-17T09:31:42;73990.25;;;-145.25;55.21
54146;BME280;40052;49.422;7.738;2022-10-17T09:34:09;73964.22;;;-145.25;55.85
54146;BME280;40052;49.422;7.738;2022-10-17T09:36:41;73946.19;;;-145.25;55.63
54146;BME280;40052;49.422;7.738;2022-10-17T09:39:19;73948.19;;;-145.25;54.39
54146;BME280;40052;49.422;7.738;2022-10-17T09:41:52;73952.19;;;-145.25;54.74
54146;BME280;40052;49.422;7.738;2022-10-17T09:47:12;73936.16;;;-145.25;54.69
54146;BME280;40052;49.422;7.738;2022-10-17T09:49:41;73916.13;;;-145.25;54.51
54146;BME280;40052;49.422;7.738;2022-10-17T09:52:14;73964.22;;;-145.25;54.29
54146;BME280;40052;49.422;7.738;2022-10-17T09:54:56;73970.22;;;-145.25;54.37
54146;BME280;40052;49.422;7.738;2022-10-17T09:57:23;73934.16;;;-145.25;54.28
54146;BME280;40052;49.422;7.738;2022-10-17T10:00:03;73936.16;;;-145.25;53.63
54146;BME280;40052;49.422;7.738;2022-10-17T10:02:30;73926.13;;;-145.25;54.24
54146;BME280;40052;49.422;7.738;2022-10-17T10:05:04;73912.13;;;-145.25;54.62
54146;BME280;40052;49.422;7.738;2022-10-17T10:07:41;73910.13;;;-145.25;55.05
54146;BME280;40052;49.422;7.738;2022-10-17T10:10:25;73878.06;;;-145.25;54.50
54146;BME280;40052;49.422;7.738;2022-10-17T10:13:20;73868.03;;;-145.25;53.41
54146;BME280;40052;49.422;7.738;2022-10-17T10:15:52;73856.00;;;-145.25;54.17
54146;BME280;40052;49.422;7.738;2022-10-17T10:23:43;73882.06;;;-145.25;53.29
54146;BME280;40052;49.422;7.738;2022-10-17T10:28:55;73842.00;;;-145.25;53.41
54146;BME280;40052;49.422;7.738;2022-10-17T10:31:28;73811.94;;;-145.25;53.21
54146;BME280;40052;49.422;7.738;2022-10-17T10:33:54;73854.00;;;-145.25;53.24
54146;BME280;40052;49.422;7.738;2022-10-17T10:36:24;73837.97;;;-145.25;53.41
54146;BME280;40052;49.422;7.738;2022-10-17T10:38:55;73805.94;;;-145.25;53.09
54146;BME280;40052;49.422;7.738;2022-10-17T10:41:24;73809.94;;;-145.25;52.76
54146;BME280;40052;49.422;7.738;2022-10-17T10:43:53;73789.91;;;-145.25;53.25
54146;BME280;40052;49.422;7.738;2022-10-17T10:46:22;73797.91;;;-145.25;52.85
54146;BME280;40052;49.422;7.738;2022-10-17T10:51:22;73837.97;;;-145.25;54.12
54146;BME280;40052;49.422;7.738;2022-10-17T10:54:01;73827.97;;;-145.25;55.39
54146;BME280;40052;49.422;7.738;2022-10-17T10:56:39;73823.97;;;-145.25;54.53
54146;BME280;40052;49.422;7.738;2022-10-17T10:59:16;73775.88;;;-145.25;54.45
54146;BME280;40052;49.422;7.738;2022-10-17T11:01:59;73827.97;;;-145.25;55.47
54146;BME280;40052;49.422;7.738;2022-10-17T11:07:26;73777.88;;;-145.25;54.85
54146;BME280;40052;49.422;7.738;2022-10-17T11:16:15;73759.84;;;-145.25;53.74
54146;BME280;40052;49.422;7.738;2022-10-17T11:18:54;73763.84;;;-145.25;54.24
54146;BME280;40052;49.422;7.738;2022-10-17T11:21:46;73789.91;;;-145.25;54.58
54146;BME280;40052;49.422;7.738;2022-10-17T11:24:34;73763.84;;;-145.25;53.73
54146;BME280;40052;49.422;7.738;2022-10-17T11:27:05;73737.81;;;-145.25;52.90
54146;BME280;40052;49.422;7.738;2022-10-17T11:29:37;73777.88;;;-145.25;53.35
54146;BME280;40052;49.422;7.738;2022-10-17T11:32:39;73773.88;;;-145.25;53.60
54146;BME280;40052;49.422;7.738;2022-10-17T11:40:30;73637.63;;;-145.25;51.75
54146;BME280;40052;49.422;7.738;2022-10-17T11:43:09;73643.66;;;-145.25;52.45
54146;BME280;40052;49.422;7.738;2022-10-17T11:45:40;73615.59;;;-145.25;50.87
54146;BME280;40052;49.422;7.738;2022-10-17T11:48:20;73661.69;;;-145.25;51.23
54146;BME280;40052;49.422;7.738;2022-10-17T11:50:52;73675.69;;;-145.25;51.75
54146;BME280;40052;49.422;7.738;2022-10-17T11:53:25;73683.72;;;-145.25;51.70
54146;BME280;40052;49.422;7.738;2022-10-17T11:55:57;73663.69;;;-145.25;51.44
54146;BME280;40052;49.422;7.738;2022-10-17T12:04:15;73587.56;;;-145.25;50.48
54146;BME280;40052;49.422;7.738;2022-10-17T12:09:55;73577.53;;;-145.25;50.77
54146;BME280;40052;49.422;7.738;2022-10-17T12:12:33;73601.56;;;-145.25;51.12
54146;BME280;40052;49.422;7.738;2022-10-17T12:17:45;73669.69;;;-145.25;51.96
54146;BME280;40052;49.422;7.738;2022-10-17T12:22:48;73685.72;;;-145.25;52.60
54146;BME280;40052;49.422;7.738;2022-10-17T12:25:21;73639.63;;;-145.25;51.68
54146;BME280;40052;49.422;7.738;2022-10-17T12:28:09;73679.72;;;-145.25;52.33
54146;BME280;40052;49.422;7.738;2022-10-17T12:30:35;73725.78;;;-145.25;53.22
54146;BME280;40052;49.422;7.738;2022-10-17T12:35:35;73759.84;;;-145.25;53.96
54146;BME280;40052;49.422;7.738;2022-10-17T12:38:18;73675.69;;;-145.25;52.97
54146;BME280;40052;49.422;7.738;2022-10-17T12:56:05;73371.19;;;-145.25;48.37
54146;BME280;40052;49.422;7.738;2022-10-17T12:58:33;73367.19;;;-145.25;47.88
54146;BME280;40052;49.422;7.738;2022-10-17T13:01:01;73393.22;;;-145.25;48.39
54146;BME280;40052;49.422;7.738;2022-10-17T13:03:31;73331.13;;;-145.25;46.87
54146;BME280;40052;49.422;7.738;2022-10-17T13:06:04;73287.03;;;-145.25;46.37
54146;BME280;40052;49.422;7.738;2022-10-17T13:08:44;73319.09;;;-145.25;46.89
54146;BME280;40052;49.422;7.738;2022-10-17T13:11:13;73313.09;;;-145.25;46.77
54146;BME280;40052;49.422;7.738;2022-10-17T13:13:47;73327.13;;;-145.25;46.74
54146;BME280;40052;49.422;7.738;2022-10-17T13:16:52;73279.03;;;-145.25;46.13
54146;BME280;40052;49.422;7.738;2022-10-17T13:19:20;73351.16;;;-145.25;46.55
54146;BME280;40052;49.422;7.738;2022-10-17T13:24:26;73263.00;;;-145.25;45.95
54146;BME280;40052;49.422;7.738;2022-10-17T13:26:55;73347.16;;;-145.25;46.74
54146;BME280;40052;49.422;7.738;2022-10-17T13:29:20;73387.22;;;-145.25;47.76
54146;BME280;40052;49.422;7.738;2022-10-17T13:32:01;73343.13;;;-145.25;47.42
54146;BME280;40052;49.422;7.738;2022-10-17T13:34:31;73331.13;;;-145.25;46.56
54146;BME280;40052;49.422;7.738;2022-10-17T13:37:05;73421.28;;;-145.25;48.52
54146;BME280;40052;49.422;7.738;2022-10-17T13:39:40;73427.28;;;-145.25;48.42
54146;BME280;40052;49.422;7.738;2022-10-17T13:42:06;73311.09;;;-145.25;47.39
54146;BME280;40052;49.422;7.738;2022-10-17T13:44:39;73226.94;;;-145.25;46.46
54146;BME280;40052;49.422;7.738;2022-10-17T13:47:20;73220.94;;;-145.25;45.76
54146;BME280;40052;49.422;7.738;2022-10-17T13:49:51;73240.97;;;-145.25;45.18
54146;BME280;40052;49.422;7.738;2022-10-17T13:52:19;73216.94;;;-145.25;45.69
54146;BME280;40052;49.422;7.738;2022-10-17T13:54:52;73248.97;;;-145.25;45.75
54146;BME280;40052;49.422;7.738;2022-10-17T13:59:58;73475.34;;;-145.25;49.00
54146;BME280;40052;49.422;7.738;2022-10-17T14:02:29;73519.44;;;-145.25;49.73
54146;BME280;40052;49.422;7.738;2022-10-17T14:07:53;73571.53;;;-145.25;51.98
54146;BME280;40052;49.422;7.738;2022-10-17T14:10:26;73517.44;;;-145.25;50.19
54146;BME280;40052;49.422;7.738;2022-10-17T14:12:57;73593.56;;;-145.25;51.31
54146;BME280;40052;49.422;7.738;2022-10-17T14:15:30;73615.59;;;-145.25;51.77
54146;BME280;40052;49.422;7.738;2022-10-17T14:17:58;73659.66;;;-145.25;52.71
54146;BME280;40052;49.422;7.738;2022-10-17T14:20:27;73675.69;;;-145.25;53.14
54146;BME280;40052;49.422;7.738;2022-10-17T14:22:58;73677.69;;;-145.25;53.54
54146;BME280;40052;49.422;7.738;2022-10-17T14:28:02;73703.75;;;-145.25;53.97
54146;BME280;40052;49.422;7.738;2022-10-17T14:30:33;73701.75;;;-145.25;54.13
54146;BME280;40052;49.422;7.738;2022-10-17T14:33:02;73713.75;;;-145.25;54.90
54146;BME280;40052;49.422;7.738;2022-10-17T14:35:32;73723.78;;;-145.25;55.23
54146;BME280;40052;49.422;7.738;2022-10-17T14:38:03;73615.59;;;-145.25;53.17
54146;BME280;40052;49.422;7.738;2022-10-17T14:40:30;73569.50;;;-145.25;52.52
54146;BME280;40052;49.422;7.738;2022-10-17T14:43:04;73603.56;;;-145.25;52.28
54146;BME280;40052;49.422;7.738;2022-10-17T14:45:37;73627.63;;;-145.25;52.95